sensor_id;sensor_type;location;lat;lon;timestamp;P1;durP1;ratioP1;P2;durP2;ratioP2
9763;SDS011;4921;43.214;27.936;2023-02-22T00:01:14;8.37;;;3.43;;
9763;SDS011;4921;43.214;27.936;2023-02-22T00:03:54;6.67;;;3.37;;
9763;SDS011;4921;43.214;27.936;2023-02-22T00:06:21;4.77;;;3.27;;
9763;SDS011;4921;43.214;27.936;2023-02-22T00:08:50;4.33;;;3.07;;
9763;SDS011;4921;43.214;27.936;2023-02-22T00:11:18;3.30;;;2.90;;
9763;SDS011;4921;43.214;27.936;2023-02-22T00:13:45;6.07;;;2.90;;
9763;SDS011;4921;43.214;27.936;2023-02-22T00:16:15;4.90;;;3.00;;
9763;SDS011;4921;43.214;27.936;2023-02-22T00:18:44;6.50;;;3.10;;
9763;SDS011;4921;43.214;27.936;2023-02-22T00:21:13;5.20;;;3.30;;
9763;SDS011;4921;43.214;27.936;2023-02-22T00:23:42;4.73;;;3.40;;
9763;SDS011;4921;43.214;27.936;2023-02-22T00:26:12;3.30;;;3.00;;
9763;SDS011;4921;43.214;27.936;2023-02-22T00:28:43;3.20;;;2.90;;
9763;SDS011;4921;43.214;27.936;2023-02-22T00:31:10;3.27;;;2.80;;
9763;SDS011;4921;43.214;27.936;2023-02-22T00:33:39;3.33;;;3.03;;
9763;SDS011;4921;43.214;27.936;2023-02-22T00:36:06;3.00;;;2.80;;
9763;SDS011;4921;43.214;27.936;2023-02-22T00:38:35;4.23;;;3.30;;
9763;SDS011;4921;43.214;27.936;2023-02-22T00:41:03;2.70;;;2.53;;
9763;SDS011;4921;43.214;27.936;2023-02-22T00:43:31;3.23;;;2.93;;
9763;SDS011;4921;43.214;27.936;2023-02-22T00:45:58;3.47;;;3.17;;
9763;SDS011;4921;43.214;27.936;2023-02-22T00:48:25;5.67;;;3.20;;
9763;SDS011;4921;43.214;27.936;2023-02-22T00:50:52;3.53;;;3.17;;
9763;SDS011;4921;43.214;27.936;2023-02-22T00:53:21;3.40;;;2.87;;
9763;SDS011;4921;43.214;27.936;2023-02-22T00:55:50;5.33;;;3.60;;
9763;SDS011;4921;43.214;27.936;2023-02-22T00:58:18;4.43;;;3.00;;
9763;SDS011;4921;43.214;27.936;2023-02-22T01:00:46;5.10;;;3.83;;
9763;SDS011;4921;43.214;27.936;2023-02-22T01:03:14;4.83;;;3.80;;
9763;SDS011;4921;43.214;27.936;2023-02-22T01:05:44;5.17;;;3.77;;
9763;SDS011;4921;43.214;27.936;2023-02-22T01:08:12;4.47;;;3.60;;
9763;SDS011;4921;43.214;27.936;2023-02-22T01:10:41;5.93;;;4.00;;
9763;SDS011;4921;43.214;27.936;2023-02-22T01:13:10;4.17;;;3.77;;
9763;SDS011;4921;43.214;27.936;2023-02-22T01:15:38;5.23;;;3.97;;
9763;SDS011;4921;43.214;27.936;2023-02-22T01:18:09;6.90;;;4.73;;
9763;SDS011;4921;43.214;27.936;2023-02-22T01:20:37;10.17;;;5.80;;
9763;SDS011;4921;43.214;27.936;2023-02-22T01:23:04;7.53;;;5.80;;
9763;SDS011;4921;43.214;27.936;2023-02-22T01:25:33;10.07;;;6.70;;
9763;SDS011;4921;43.214;27.936;2023-02-22T01:28:01;13.70;;;6.23;;
9763;SDS011;4921;43.214;27.936;2023-02-22T01:30:32;11.20;;;6.17;;
9763;SDS011;4921;43.214;27.936;2023-02-22T01:33:01;8.13;;;5.33;;
9763;SDS011;4921;43.214;27.936;2023-02-22T01:35:30;7.47;;;5.00;;
9763;SDS011;4921;43.214;27.936;2023-02-22T01:37:58;7.83;;;5.17;;
9763;SDS011;4921;43.214;27.936;2023-02-22T01:40:26;6.97;;;4.93;;
9763;SDS011;4921;43.214;27.936;2023-02-22T01:42:56;8.03;;;5.10;;
9763;SDS011;4921;43.214;27.936;2023-02-22T01:48:33;4.87;;;4.33;;
9763;SDS011;4921;43.214;27.936;2023-02-22T01:51:05;6.63;;;4.23;;
9763;SDS011;4921;43.214;27.936;2023-02-22T01:53:37;9.03;;;4.03;;
9763;SDS011;4921;43.214;27.936;2023-02-22T01:56:10;7.50;;;4.37;;
9763;SDS011;4921;43.214;27.936;2023-02-22T01:58:39;5.13;;;4.13;;
9763;SDS011;4921;43.214;27.936;2023-02-22T02:01:08;7.37;;;4.27;;
9763;SDS011;4921;43.214;27.936;2023-02-22T02:03:38;6.73;;;4.00;;
9763;SDS011;4921;43.214;27.936;2023-02-22T02:06:07;3.83;;;3.53;;
9763;SDS011;4921;43.214;27.936;2023-02-22T02:08:40;7.87;;;3.83;;
9763;SDS011;4921;43.214;27.936;2023-02-22T02:11:14;6.07;;;4.23;;
9763;SDS011;4921;43.214;27.936;2023-02-22T02:13:43;5.87;;;4.10;;
9763;SDS011;4921;43.214;27.936;2023-02-22T02:16:10;4.70;;;4.30;;
9763;SDS011;4921;43.214;27.936;2023-02-22T02:18:40;4.80;;;4.17;;
9763;SDS011;4921;43.214;27.936;2023-02-22T02:24:11;4.47;;;4.07;;
9763;SDS011;4921;43.214;27.936;2023-02-22T02:27:01;5.07;;;4.10;;
9763;SDS011;4921;43.214;27.936;2023-02-22T02:30:01;4.67;;;4.17;;
9763;SDS011;4921;43.214;27.936;2023-02-22T02:32:55;4.77;;;4.30;;
9763;SDS011;4921;43.214;27.936;2023-02-22T02:35:31;4.33;;;3.90;;
9763;SDS011;4921;43.214;27.936;2023-02-22T02:38:08;6.47;;;4.20;;
9763;SDS011;4921;43.214;27.936;2023-02-22T02:40:43;4.50;;;4.10;;
9763;SDS011;4921;43.214;27.936;2023-02-22T02:43:16;4.40;;;3.90;;
9763;SDS011;4921;43.214;27.936;2023-02-22T02:45:51;4.10;;;3.70;;
9763;SDS011;4921;43.214;27.936;2023-02-22T02:48:24;5.00;;;3.80;;
9763;SDS011;4921;43.214;27.936;2023-02-22T02:50:53;4.60;;;4.20;;
9763;SDS011;4921;43.214;27.936;2023-02-22T02:53:24;4.37;;;3.83;;
9763;SDS011;4921;43.214;27.936;2023-02-22T02:55:57;4.13;;;3.73;;
9763;SDS011;4921;43.214;27.936;2023-02-22T02:58:24;6.03;;;3.97;;
9763;SDS011;4921;43.214;27.936;2023-02-22T03:00:52;4.23;;;3.83;;
9763;SDS011;4921;43.214;27.936;2023-02-22T03:06:35;6.33;;;4.23;;
9763;SDS011;4921;43.214;27.936;2023-02-22T03:09:19;9.57;;;4.07;;
9763;SDS011;4921;43.214;27.936;2023-02-22T03:11:54;5.97;;;4.13;;
9763;SDS011;4921;43.214;27.936;2023-02-22T03:14:32;4.47;;;4.03;;
9763;SDS011;4921;43.214;27.936;2023-02-22T03:17:09;4.63;;;3.83;;
9763;SDS011;4921;43.214;27.936;2023-02-22T03:19:44;5.67;;;4.03;;
9763;SDS011;4921;43.214;27.936;2023-02-22T03:22:17;7.17;;;3.97;;
9763;SDS011;4921;43.214;27.936;2023-02-22T03:24:49;5.50;;;4.77;;
9763;SDS011;4921;43.214;27.936;2023-02-22T03:27:24;6.23;;;4.00;;
9763;SDS011;4921;43.214;27.936;2023-02-22T03:29:54;4.63;;;3.47;;
9763;SDS011;4921;43.214;27.936;2023-02-22T03:32:27;5.77;;;4.47;;
9763;SDS011;4921;43.214;27.936;2023-02-22T03:35:00;6.17;;;4.20;;
9763;SDS011;4921;43.214;27.936;2023-02-22T03:37:34;6.07;;;4.83;;
9763;SDS011;4921;43.214;27.936;2023-02-22T03:40:06;5.50;;;5.00;;
9763;SDS011;4921;43.214;27.936;2023-02-22T03:42:39;8.27;;;5.47;;
9763;SDS011;4921;43.214;27.936;2023-02-22T03:45:09;7.37;;;4.70;;
9763;SDS011;4921;43.214;27.936;2023-02-22T03:47:40;8.37;;;5.30;;
9763;SDS011;4921;43.214;27.936;2023-02-22T03:50:13;7.67;;;5.20;;
9763;SDS011;4921;43.214;27.936;2023-02-22T03:52:43;9.57;;;6.00;;
9763;SDS011;4921;43.214;27.936;2023-02-22T03:55:12;8.27;;;5.30;;
9763;SDS011;4921;43.214;27.936;2023-02-22T03:57:42;7.87;;;5.00;;
9763;SDS011;4921;43.214;27.936;2023-02-22T04:00:14;8.70;;;5.77;;
9763;SDS011;4921;43.214;27.936;2023-02-22T04:02:46;7.90;;;5.53;;
9763;SDS011;4921;43.214;27.936;2023-02-22T04:05:13;7.00;;;5.30;;
9763;SDS011;4921;43.214;27.936;2023-02-22T04:07:41;8.40;;;5.10;;
9763;SDS011;4921;43.214;27.936;2023-02-22T04:10:10;7.67;;;5.13;;
9763;SDS011;4921;43.214;27.936;2023-02-22T04:12:38;7.90;;;5.20;;
9763;SDS011;4921;43.214;27.936;2023-02-22T04:15:05;9.03;;;5.30;;
9763;SDS011;4921;43.214;27.936;2023-02-22T04:17:34;9.20;;;5.43;;
9763;SDS011;4921;43.214;27.936;2023-02-22T04:20:01;7.50;;;5.60;;
9763;SDS011;4921;43.214;27.936;2023-02-22T04:22:29;8.33;;;5.60;;
9763;SDS011;4921;43.214;27.936;2023-02-22T04:24:57;8.73;;;4.90;;
9763;SDS011;4921;43.214;27.936;2023-02-22T04:27:24;7.10;;;5.27;;
9763;SDS011;4921;43.214;27.936;2023-02-22T04:29:51;10.50;;;5.27;;
9763;SDS011;4921;43.214;27.936;2023-02-22T04:32:18;7.33;;;5.30;;
9763;SDS011;4921;43.214;27.936;2023-02-22T04:34:45;8.10;;;5.30;;
9763;SDS011;4921;43.214;27.936;2023-02-22T04:37:12;7.07;;;5.70;;
9763;SDS011;4921;43.214;27.936;2023-02-22T04:39:39;12.77;;;5.70;;
9763;SDS011;4921;43.214;27.936;2023-02-22T04:42:07;11.83;;;5.90;;
9763;SDS011;4921;43.214;27.936;2023-02-22T04:44:34;8.30;;;6.17;;
9763;SDS011;4921;43.214;27.936;2023-02-22T04:47:01;7.57;;;5.40;;
9763;SDS011;4921;43.214;27.936;2023-02-22T04:49:28;7.73;;;5.80;;
9763;SDS011;4921;43.214;27.936;2023-02-22T04:51:55;9.40;;;6.13;;
9763;SDS011;4921;43.214;27.936;2023-02-22T04:54:22;8.37;;;6.70;;
9763;SDS011;4921;43.214;27.936;2023-02-22T04:56:49;8.50;;;6.43;;
9763;SDS011;4921;43.214;27.936;2023-02-22T04:59:17;9.63;;;6.40;;
9763;SDS011;4921;43.214;27.936;2023-02-22T05:01:45;7.83;;;6.03;;
9763;SDS011;4921;43.214;27.936;2023-02-22T05:04:12;12.07;;;6.77;;
9763;SDS011;4921;43.214;27.936;2023-02-22T05:06:39;9.17;;;6.47;;
9763;SDS011;4921;43.214;27.936;2023-02-22T05:09:06;8.87;;;6.63;;
9763;SDS011;4921;43.214;27.936;2023-02-22T05:11:32;10.87;;;6.47;;
9763;SDS011;4921;43.214;27.936;2023-02-22T05:13:59;13.60;;;6.70;;
9763;SDS011;4921;43.214;27.936;2023-02-22T05:16:28;11.17;;;6.50;;
9763;SDS011;4921;43.214;27.936;2023-02-22T05:18:55;8.63;;;6.17;;
9763;SDS011;4921;43.214;27.936;2023-02-22T05:21:22;11.67;;;6.53;;
9763;SDS011;4921;43.214;27.936;2023-02-22T05:23:49;11.70;;;6.50;;
9763;SDS011;4921;43.214;27.936;2023-02-22T05:26:16;12.83;;;6.90;;
9763;SDS011;4921;43.214;27.936;2023-02-22T05:28:43;19.77;;;7.60;;
9763;SDS011;4921;43.214;27.936;2023-02-22T05:31:10;10.27;;;6.53;;
9763;SDS011;4921;43.214;27.936;2023-02-22T05:33:38;11.60;;;5.67;;
9763;SDS011;4921;43.214;27.936;2023-02-22T05:36:06;8.70;;;6.30;;
9763;SDS011;4921;43.214;27.936;2023-02-22T05:38:34;10.60;;;6.23;;
9763;SDS011;4921;43.214;27.936;2023-02-22T05:41:07;8.70;;;6.33;;
9763;SDS011;4921;43.214;27.936;2023-02-22T05:43:34;12.73;;;6.03;;
9763;SDS011;4921;43.214;27.936;2023-02-22T05:46:01;7.33;;;6.00;;
9763;SDS011;4921;43.214;27.936;2023-02-22T05:48:28;10.93;;;6.77;;
9763;SDS011;4921;43.214;27.936;2023-02-22T05:50:57;8.20;;;6.30;;
9763;SDS011;4921;43.214;27.936;2023-02-22T05:53:25;10.70;;;5.63;;
9763;SDS011;4921;43.214;27.936;2023-02-22T05:55:52;12.10;;;7.23;;
9763;SDS011;4921;43.214;27.936;2023-02-22T05:58:19;11.73;;;7.27;;
9763;SDS011;4921;43.214;27.936;2023-02-22T06:00:46;15.37;;;8.57;;
9763;SDS011;4921;43.214;27.936;2023-02-22T06:03:13;13.23;;;8.07;;
9763;SDS011;4921;43.214;27.936;2023-02-22T06:05:40;15.50;;;7.97;;
9763;SDS011;4921;43.214;27.936;2023-02-22T06:08:08;11.37;;;7.77;;
9763;SDS011;4921;43.214;27.936;2023-02-22T06:10:35;13.20;;;7.80;;
9763;SDS011;4921;43.214;27.936;2023-02-22T06:13:03;16.10;;;8.80;;
9763;SDS011;4921;43.214;27.936;2023-02-22T06:15:31;13.50;;;7.70;;
9763;SDS011;4921;43.214;27.936;2023-02-22T06:17:58;14.23;;;7.80;;
9763;SDS011;4921;43.214;27.936;2023-02-22T06:20:26;12.27;;;8.23;;
9763;SDS011;4921;43.214;27.936;2023-02-22T06:22:54;10.47;;;7.30;;
9763;SDS011;4921;43.214;27.936;2023-02-22T06:25:24;14.40;;;7.90;;
9763;SDS011;4921;43.214;27.936;2023-02-22T06:27:52;11.27;;;7.10;;
9763;SDS011;4921;43.214;27.936;2023-02-22T06:30:20;11.20;;;7.37;;
9763;SDS011;4921;43.214;27.936;2023-02-22T06:32:49;22.73;;;8.60;;
9763;SDS011;4921;43.214;27.936;2023-02-22T06:35:16;20.30;;;7.90;;
9763;SDS011;4921;43.214;27.936;2023-02-22T06:37:43;15.60;;;7.63;;
9763;SDS011;4921;43.214;27.936;2023-02-22T06:40:11;19.37;;;7.73;;
9763;SDS011;4921;43.214;27.936;2023-02-22T06:42:40;14.47;;;7.80;;
9763;SDS011;4921;43.214;27.936;2023-02-22T06:45:07;13.87;;;7.87;;
9763;SDS011;4921;43.214;27.936;2023-02-22T06:47:36;14.20;;;7.87;;
9763;SDS011;4921;43.214;27.936;2023-02-22T06:50:05;19.37;;;8.27;;
9763;SDS011;4921;43.214;27.936;2023-02-22T06:52:32;13.93;;;7.97;;
9763;SDS011;4921;43.214;27.936;2023-02-22T06:54:59;15.27;;;7.90;;
9763;SDS011;4921;43.214;27.936;2023-02-22T06:57:26;13.40;;;7.60;;
9763;SDS011;4921;43.214;27.936;2023-02-22T06:59:54;10.90;;;6.37;;
9763;SDS011;4921;43.214;27.936;2023-02-22T07:02:21;7.97;;;6.27;;
9763;SDS011;4921;43.214;27.936;2023-02-22T07:04:48;8.57;;;6.03;;
9763;SDS011;4921;43.214;27.936;2023-02-22T07:07:15;9.53;;;6.60;;
9763;SDS011;4921;43.214;27.936;2023-02-22T07:09:44;12.53;;;7.00;;
9763;SDS011;4921;43.214;27.936;2023-02-22T07:12:12;13.17;;;7.60;;
9763;SDS011;4921;43.214;27.936;2023-02-22T07:14:39;11.20;;;7.60;;
9763;SDS011;4921;43.214;27.936;2023-02-22T07:17:07;14.30;;;6.53;;
9763;SDS011;4921;43.214;27.936;2023-02-22T07:19:35;9.00;;;6.20;;
9763;SDS011;4921;43.214;27.936;2023-02-22T07:22:02;8.27;;;5.73;;
9763;SDS011;4921;43.214;27.936;2023-02-22T07:24:30;7.10;;;6.30;;
9763;SDS011;4921;43.214;27.936;2023-02-22T07:26:59;9.07;;;6.60;;
9763;SDS011;4921;43.214;27.936;2023-02-22T07:29:26;10.30;;;7.23;;
9763;SDS011;4921;43.214;27.936;2023-02-22T07:31:54;8.77;;;6.77;;
9763;SDS011;4921;43.214;27.936;2023-02-22T07:34:23;6.90;;;6.00;;
9763;SDS011;4921;43.214;27.936;2023-02-22T07:36:50;7.80;;;5.50;;
9763;SDS011;4921;43.214;27.936;2023-02-22T07:39:17;10.67;;;5.80;;
9763;SDS011;4921;43.214;27.936;2023-02-22T07:41:44;8.97;;;5.90;;
9763;SDS011;4921;43.214;27.936;2023-02-22T07:44:10;8.17;;;5.83;;
9763;SDS011;4921;43.214;27.936;2023-02-22T07:46:38;8.10;;;4.47;;
9763;SDS011;4921;43.214;27.936;2023-02-22T07:49:05;8.07;;;5.50;;
9763;SDS011;4921;43.214;27.936;2023-02-22T07:51:33;8.33;;;6.07;;
9763;SDS011;4921;43.214;27.936;2023-02-22T07:54:00;7.67;;;5.53;;
9763;SDS011;4921;43.214;27.936;2023-02-22T07:56:27;5.20;;;4.70;;
9763;SDS011;4921;43.214;27.936;2023-02-22T07:58:54;4.70;;;4.30;;
9763;SDS011;4921;43.214;27.936;2023-02-22T08:01:21;7.50;;;4.53;;
9763;SDS011;4921;43.214;27.936;2023-02-22T08:03:48;5.67;;;4.57;;
9763;SDS011;4921;43.214;27.936;2023-02-22T08:06:16;4.80;;;4.30;;
9763;SDS011;4921;43.214;27.936;2023-02-22T08:08:46;5.53;;;4.10;;
9763;SDS011;4921;43.214;27.936;2023-02-22T08:11:13;6.17;;;5.07;;
9763;SDS011;4921;43.214;27.936;2023-02-22T08:13:40;7.87;;;5.83;;
9763;SDS011;4921;43.214;27.936;2023-02-22T08:16:07;5.20;;;4.57;;
9763;SDS011;4921;43.214;27.936;2023-02-22T08:18:34;5.47;;;4.70;;
9763;SDS011;4921;43.214;27.936;2023-02-22T08:21:03;6.97;;;4.80;;
9763;SDS011;4921;43.214;27.936;2023-02-22T08:23:30;7.10;;;4.50;;
9763;SDS011;4921;43.214;27.936;2023-02-22T08:26:03;4.87;;;4.37;;
9763;SDS011;4921;43.214;27.936;2023-02-22T08:28:30;4.37;;;3.97;;
9763;SDS011;4921;43.214;27.936;2023-02-22T08:30:57;6.43;;;4.37;;
9763;SDS011;4921;43.214;27.936;2023-02-22T08:33:24;6.67;;;3.90;;
9763;SDS011;4921;43.214;27.936;2023-02-22T08:35:51;7.53;;;5.70;;
9763;SDS011;4921;43.214;27.936;2023-02-22T08:38:19;5.33;;;4.83;;
9763;SDS011;4921;43.214;27.936;2023-02-22T08:40:47;5.93;;;4.33;;
9763;SDS011;4921;43.214;27.936;2023-02-22T08:43:16;7.27;;;4.50;;
9763;SDS011;4921;43.214;27.936;2023-02-22T08:45:44;6.37;;;4.70;;
9763;SDS011;4921;43.214;27.936;2023-02-22T08:48:12;8.83;;;4.70;;
9763;SDS011;4921;43.214;27.936;2023-02-22T08:50:39;4.87;;;4.37;;
9763;SDS011;4921;43.214;27.936;2023-02-22T08:53:08;5.13;;;4.33;;
9763;SDS011;4921;43.214;27.936;2023-02-22T08:55:37;5.83;;;4.20;;
9763;SDS011;4921;43.214;27.936;2023-02-22T08:58:06;5.00;;;4.50;;
9763;SDS011;4921;43.214;27.936;2023-02-22T09:00:36;6.33;;;4.23;;
9763;SDS011;4921;43.214;27.936;2023-02-22T09:03:04;5.20;;;4.47;;
9763;SDS011;4921;43.214;27.936;2023-02-22T09:05:33;5.37;;;3.87;;
9763;SDS011;4921;43.214;27.936;2023-02-22T09:08:00;6.53;;;3.93;;
9763;SDS011;4921;43.214;27.936;2023-02-22T09:10:27;4.53;;;3.87;;
9763;SDS011;4921;43.214;27.936;2023-02-22T09:12:55;7.47;;;3.83;;
9763;SDS011;4921;43.214;27.936;2023-02-22T09:15:25;4.70;;;3.90;;
9763;SDS011;4921;43.214;27.936;2023-02-22T09:17:54;4.97;;;3.90;;
9763;SDS011;4921;43.214;27.936;2023-02-22T09:20:22;5.80;;;4.00;;
9763;SDS011;4921;43.214;27.936;2023-02-22T09:22:50;5.30;;;3.77;;
9763;SDS011;4921;43.214;27.936;2023-02-22T09:25:18;4.63;;;4.03;;
9763;SDS011;4921;43.214;27.936;2023-02-22T09:27:46;5.23;;;3.90;;
9763;SDS011;4921;43.214;27.936;2023-02-22T09:30:19;7.07;;;4.10;;
9763;SDS011;4921;43.214;27.936;2023-02-22T09:32:49;8.03;;;4.10;;
9763;SDS011;4921;43.214;27.936;2023-02-22T09:35:19;5.63;;;3.80;;
9763;SDS011;4921;43.214;27.936;2023-02-22T09:37:51;6.07;;;3.60;;
9763;SDS011;4921;43.214;27.936;2023-02-22T09:40:19;5.90;;;3.90;;
9763;SDS011;4921;43.214;27.936;2023-02-22T09:43:05;7.17;;;3.80;;
9763;SDS011;4921;43.214;27.936;2023-02-22T09:45:43;7.60;;;4.20;;
9763;SDS011;4921;43.214;27.936;2023-02-22T09:48:18;5.60;;;4.00;;
9763;SDS011;4921;43.214;27.936;2023-02-22T09:50:46;5.97;;;3.70;;
9763;SDS011;4921;43.214;27.936;2023-02-22T09:53:18;6.00;;;4.40;;
9763;SDS011;4921;43.214;27.936;2023-02-22T09:55:54;6.50;;;4.03;;
9763;SDS011;4921;43.214;27.936;2023-02-22T09:58:27;7.00;;;3.90;;
9763;SDS011;4921;43.214;27.936;2023-02-22T10:01:02;5.90;;;4.03;;
9763;SDS011;4921;43.214;27.936;2023-02-22T10:03:44;8.53;;;4.77;;
9763;SDS011;4921;43.214;27.936;2023-02-22T10:06:20;5.43;;;4.10;;
9763;SDS011;4921;43.214;27.936;2023-02-22T10:08:49;8.03;;;4.77;;
9763;SDS011;4921;43.214;27.936;2023-02-22T10:11:30;4.70;;;4.23;;
9763;SDS011;4921;43.214;27.936;2023-02-22T10:14:15;4.73;;;4.20;;
9763;SDS011;4921;43.214;27.936;2023-02-22T10:17:07;5.73;;;4.13;;
9763;SDS011;4921;43.214;27.936;2023-02-22T10:19:43;6.50;;;4.10;;
9763;SDS011;4921;43.214;27.936;2023-02-22T10:22:23;6.47;;;4.10;;
9763;SDS011;4921;43.214;27.936;2023-02-22T10:25:05;4.77;;;3.80;;
9763;SDS011;4921;43.214;27.936;2023-02-22T10:27:38;4.73;;;4.00;;
9763;SDS011;4921;43.214;27.936;2023-02-22T10:30:13;6.33;;;3.93;;
9763;SDS011;4921;43.214;27.936;2023-02-22T10:32:45;9.77;;;4.70;;
9763;SDS011;4921;43.214;27.936;2023-02-22T10:35:17;7.13;;;4.30;;
9763;SDS011;4921;43.214;27.936;2023-02-22T10:37:50;6.10;;;4.50;;
9763;SDS011;4921;43.214;27.936;2023-02-22T10:40:22;5.10;;;4.00;;
9763;SDS011;4921;43.214;27.936;2023-02-22T10:42:56;10.20;;;6.00;;
9763;SDS011;4921;43.214;27.936;2023-02-22T10:45:27;6.17;;;4.70;;
9763;SDS011;4921;43.214;27.936;2023-02-22T10:47:57;6.70;;;4.73;;
9763;SDS011;4921;43.214;27.936;2023-02-22T10:50:26;5.30;;;4.80;;
9763;SDS011;4921;43.214;27.936;2023-02-22T10:52:57;6.03;;;4.37;;
9763;SDS011;4921;43.214;27.936;2023-02-22T10:55:24;9.40;;;5.43;;
9763;SDS011;4921;43.214;27.936;2023-02-22T10:57:57;9.20;;;5.47;;
9763;SDS011;4921;43.214;27.936;2023-02-22T11:00:29;9.13;;;5.20;;
9763;SDS011;4921;43.214;27.936;2023-02-22T11:03:02;7.53;;;4.87;;
9763;SDS011;4921;43.214;27.936;2023-02-22T11:05:32;6.53;;;4.73;;
9763;SDS011;4921;43.214;27.936;2023-02-22T11:08:13;7.70;;;4.83;;
9763;SDS011;4921;43.214;27.936;2023-02-22T11:10:44;9.03;;;4.77;;
9763;SDS011;4921;43.214;27.936;2023-02-22T11:13:18;6.57;;;4.70;;
9763;SDS011;4921;43.214;27.936;2023-02-22T11:15:51;6.70;;;4.70;;
9763;SDS011;4921;43.214;27.936;2023-02-22T11:18:23;7.23;;;4.43;;
9763;SDS011;4921;43.214;27.936;2023-02-22T11:20:59;7.17;;;4.50;;
9763;SDS011;4921;43.214;27.936;2023-02-22T11:23:29;10.03;;;5.30;;
9763;SDS011;4921;43.214;27.936;2023-02-22T11:26:06;8.27;;;4.53;;
9763;SDS011;4921;43.214;27.936;2023-02-22T11:28:35;13.33;;;5.10;;
9763;SDS011;4921;43.214;27.936;2023-02-22T11:31:14;12.20;;;4.43;;
9763;SDS011;4921;43.214;27.936;2023-02-22T11:33:53;6.43;;;4.10;;
9763;SDS011;4921;43.214;27.936;2023-02-22T11:36:29;7.10;;;4.10;;
9763;SDS011;4921;43.214;27.936;2023-02-22T11:39:03;4.10;;;3.23;;
9763;SDS011;4921;43.214;27.936;2023-02-22T11:41:35;4.87;;;3.67;;
9763;SDS011;4921;43.214;27.936;2023-02-22T11:44:12;8.07;;;3.70;;
9763;SDS011;4921;43.214;27.936;2023-02-22T11:46:46;3.77;;;3.00;;
9763;SDS011;4921;43.214;27.936;2023-02-22T11:49:14;5.87;;;2.50;;
9763;SDS011;4921;43.214;27.936;2023-02-22T11:51:48;6.67;;;2.13;;
9763;SDS011;4921;43.214;27.936;2023-02-22T11:54:40;3.80;;;2.07;;
9763;SDS011;4921;43.214;27.936;2023-02-22T11:57:20;7.47;;;2.13;;
9763;SDS011;4921;43.214;27.936;2023-02-22T12:00:04;4.27;;;1.73;;
9763;SDS011;4921;43.214;27.936;2023-02-22T12:02:48;6.43;;;2.27;;
9763;SDS011;4921;43.214;27.936;2023-02-22T12:05:29;2.83;;;1.50;;
9763;SDS011;4921;43.214;27.936;2023-02-22T12:08:13;4.00;;;1.97;;
9763;SDS011;4921;43.214;27.936;2023-02-22T12:10:54;4.30;;;1.97;;
9763;SDS011;4921;43.214;27.936;2023-02-22T12:13:30;3.93;;;1.93;;
9763;SDS011;4921;43.214;27.936;2023-02-22T12:16:12;4.00;;;2.03;;
9763;SDS011;4921;43.214;27.936;2023-02-22T12:18:51;3.33;;;1.67;;
9763;SDS011;4921;43.214;27.936;2023-02-22T12:21:30;2.37;;;1.77;;
9763;SDS011;4921;43.214;27.936;2023-02-22T12:24:03;4.80;;;1.70;;
9763;SDS011;4921;43.214;27.936;2023-02-22T12:26:40;4.57;;;1.80;;
9763;SDS011;4921;43.214;27.936;2023-02-22T12:29:10;7.87;;;2.53;;
9763;SDS011;4921;43.214;27.936;2023-02-22T12:31:44;5.73;;;2.47;;
9763;SDS011;4921;43.214;27.936;2023-02-22T12:34:16;2.17;;;1.80;;
9763;SDS011;4921;43.214;27.936;2023-02-22T12:36:52;6.37;;;1.90;;
9763;SDS011;4921;43.214;27.936;2023-02-22T12:39:28;1.90;;;1.80;;
9763;SDS011;4921;43.214;27.936;2023-02-22T12:42:11;1.80;;;1.70;;
9763;SDS011;4921;43.214;27.936;2023-02-22T12:44:41;4.90;;;1.90;;
9763;SDS011;4921;43.214;27.936;2023-02-22T12:47:13;4.40;;;1.90;;
9763;SDS011;4921;43.214;27.936;2023-02-22T12:49:46;3.50;;;2.10;;
9763;SDS011;4921;43.214;27.936;2023-02-22T12:52:20;2.13;;;1.70;;
9763;SDS011;4921;43.214;27.936;2023-02-22T12:55:00;6.13;;;2.00;;
9763;SDS011;4921;43.214;27.936;2023-02-22T12:57:36;8.80;;;1.97;;
9763;SDS011;4921;43.214;27.936;2023-02-22T13:00:10;5.97;;;2.87;;
9763;SDS011;4921;43.214;27.936;2023-02-22T13:02:44;3.90;;;2.13;;
9763;SDS011;4921;43.214;27.936;2023-02-22T13:05:17;3.17;;;2.27;;
9763;SDS011;4921;43.214;27.936;2023-02-22T13:07:46;3.60;;;2.17;;
9763;SDS011;4921;43.214;27.936;2023-02-22T13:10:23;5.27;;;2.10;;
9763;SDS011;4921;43.214;27.936;2023-02-22T13:13:00;4.73;;;2.03;;
9763;SDS011;4921;43.214;27.936;2023-02-22T13:15:36;2.20;;;2.00;;
9763;SDS011;4921;43.214;27.936;2023-02-22T13:18:13;3.03;;;2.10;;
9763;SDS011;4921;43.214;27.936;2023-02-22T13:20:47;3.40;;;1.57;;
9763;SDS011;4921;43.214;27.936;2023-02-22T13:23:23;3.43;;;1.80;;
9763;SDS011;4921;43.214;27.936;2023-02-22T13:26:04;1.80;;;1.67;;
9763;SDS011;4921;43.214;27.936;2023-02-22T13:28:42;2.90;;;1.63;;
9763;SDS011;4921;43.214;27.936;2023-02-22T13:31:27;4.47;;;2.10;;
9763;SDS011;4921;43.214;27.936;2023-02-22T13:34:08;1.60;;;1.50;;
9763;SDS011;4921;43.214;27.936;2023-02-22T13:36:52;4.60;;;1.80;;
9763;SDS011;4921;43.214;27.936;2023-02-22T13:39:46;2.97;;;2.20;;
9763;SDS011;4921;43.214;27.936;2023-02-22T13:42:39;3.07;;;1.93;;
9763;SDS011;4921;43.214;27.936;2023-02-22T13:45:22;3.30;;;2.20;;
9763;SDS011;4921;43.214;27.936;2023-02-22T13:48:18;5.87;;;2.47;;
9763;SDS011;4921;43.214;27.936;2023-02-22T13:51:02;4.57;;;2.20;;
9763;SDS011;4921;43.214;27.936;2023-02-22T13:53:49;2.67;;;2.07;;
9763;SDS011;4921;43.214;27.936;2023-02-22T13:56:20;4.07;;;1.97;;
9763;SDS011;4921;43.214;27.936;2023-02-22T13:58:50;3.83;;;1.90;;
9763;SDS011;4921;43.214;27.936;2023-02-22T14:01:42;2.63;;;2.10;;
9763;SDS011;4921;43.214;27.936;2023-02-22T14:04:21;2.50;;;2.30;;
9763;SDS011;4921;43.214;27.936;2023-02-22T14:13:16;3.10;;;2.33;;
9763;SDS011;4921;43.214;27.936;2023-02-22T14:18:59;4.17;;;2.53;;
9763;SDS011;4921;43.214;27.936;2023-02-22T14:21:30;5.17;;;2.27;;
9763;SDS011;4921;43.214;27.936;2023-02-22T14:24:05;4.53;;;2.20;;
9763;SDS011;4921;43.214;27.936;2023-02-22T14:26:33;3.10;;;2.63;;
9763;SDS011;4921;43.214;27.936;2023-02-22T14:29:13;6.03;;;2.87;;
9763;SDS011;4921;43.214;27.936;2023-02-22T14:31:55;5.27;;;2.37;;
9763;SDS011;4921;43.214;27.936;2023-02-22T14:34:39;2.93;;;2.43;;
9763;SDS011;4921;43.214;27.936;2023-02-22T14:37:13;3.27;;;2.37;;
9763;SDS011;4921;43.214;27.936;2023-02-22T14:39:44;3.90;;;2.53;;
9763;SDS011;4921;43.214;27.936;2023-02-22T14:42:15;3.87;;;2.20;;
9763;SDS011;4921;43.214;27.936;2023-02-22T14:44:49;3.43;;;2.10;;
9763;SDS011;4921;43.214;27.936;2023-02-22T14:47:22;3.40;;;2.00;;
9763;SDS011;4921;43.214;27.936;2023-02-22T14:49:56;3.50;;;2.07;;
9763;SDS011;4921;43.214;27.936;2023-02-22T14:52:29;4.93;;;2.47;;
9763;SDS011;4921;43.214;27.936;2023-02-22T14:55:06;5.57;;;2.40;;
9763;SDS011;4921;43.214;27.936;2023-02-22T14:57:44;3.37;;;1.80;;
9763;SDS011;4921;43.214;27.936;2023-02-22T15:00:19;3.70;;;1.93;;
9763;SDS011;4921;43.214;27.936;2023-02-22T15:02:55;4.97;;;2.20;;
9763;SDS011;4921;43.214;27.936;2023-02-22T15:05:28;2.93;;;2.17;;
9763;SDS011;4921;43.214;27.936;2023-02-22T15:08:03;2.87;;;1.90;;
9763;SDS011;4921;43.214;27.936;2023-02-22T15:10:37;6.13;;;2.07;;
9763;SDS011;4921;43.214;27.936;2023-02-22T15:13:16;5.23;;;2.27;;
9763;SDS011;4921;43.214;27.936;2023-02-22T15:15:45;5.40;;;1.77;;
9763;SDS011;4921;43.214;27.936;2023-02-22T15:21:03;5.80;;;2.63;;
9763;SDS011;4921;43.214;27.936;2023-02-22T15:23:40;4.37;;;2.20;;
9763;SDS011;4921;43.214;27.936;2023-02-22T15:26:14;5.93;;;2.40;;
9763;SDS011;4921;43.214;27.936;2023-02-22T15:28:42;5.33;;;2.20;;
9763;SDS011;4921;43.214;27.936;2023-02-22T15:31:14;5.67;;;2.30;;
9763;SDS011;4921;43.214;27.936;2023-02-22T15:33:53;3.97;;;1.80;;
9763;SDS011;4921;43.214;27.936;2023-02-22T15:36:25;3.97;;;2.63;;
9763;SDS011;4921;43.214;27.936;2023-02-22T15:38:55;4.30;;;2.30;;
9763;SDS011;4921;43.214;27.936;2023-02-22T15:41:24;4.47;;;2.60;;
9763;SDS011;4921;43.214;27.936;2023-02-22T15:44:02;3.37;;;1.93;;
9763;SDS011;4921;43.214;27.936;2023-02-22T15:46:31;6.07;;;3.20;;
9763;SDS011;4921;43.214;27.936;2023-02-22T15:49:19;6.27;;;3.07;;